54.9°F
Current conditions from King Hill
Updated every 5 minutes
 
  Monday November 24, 2014

Station Historical Data
Daily Summary for November 19, 2011 Units:  Both    English   Metric
« Previous Day
Next Day »
Daily Weekly Monthly Yearly Custom
  High: Low: Average:
Temperature: 48.5 °F /  9.2 °C 34.8 °F /  1.6 °C 41.6 °F /  5.3 °C
Dew Point: 24.7 °F /  -4.1 °C 19.4 °F /  -7 °C 21.4 °F /  -5.9 °C
Humidity: 58% 36% 45%
Wind Speed: 15.0mph /  24.1km/h - 8.8mph /  14.2km/h
Wind Gust: 30.0mph /  48.3km/h - -
Wind- - SSW
Pressure: 30.18 in /  1021.9 hPa 30.00 in /  1015.8 hPa -
Precipitation: 0.00 in /  0 mm    
Historical Graphs
 
 
Tabular Data for November 19, 2011
Time Temperature Dew Point Pressure Wind Wind Speed Wind Gust Humidity Daily Rainfall
00:04 34.8 °F /  1.6 °C 21.1 °F /  -6.1 °C 30.18in /  1021.9hPa SSW 9.0mph /  14.5km/h 23.0mph /  37km/h 57% 0.00in /  0mm
00:09 34.8 °F /  1.6 °C 21.1 °F /  -6.1 °C 30.18in /  1021.9hPa SSW 11.0mph /  17.7km/h 23.0mph /  37km/h 57% 0.00in /  0mm
00:14 34.9 °F /  1.6 °C 21.2 °F /  -6 °C 30.18in /  1021.9hPa SSW 10.0mph /  16.1km/h 21.0mph /  33.8km/h 57% 0.00in /  0mm
00:19 35.0 °F /  1.7 °C 21.7 °F /  -5.7 °C 30.18in /  1021.9hPa SSW 7.0mph /  11.3km/h 18.0mph /  29km/h 58% 0.00in /  0mm
00:24 35.1 °F /  1.7 °C 21.8 °F /  -5.7 °C 30.18in /  1021.9hPa SSW 6.0mph /  9.7km/h 24.0mph /  38.6km/h 58% 0.00in /  0mm
00:29 35.1 °F /  1.7 °C 21.8 °F /  -5.7 °C 30.18in /  1021.9hPa SSW 9.0mph /  14.5km/h 24.0mph /  38.6km/h 58% 0.00in /  0mm
00:34 35.2 °F /  1.8 °C 21.9 °F /  -5.6 °C 30.17in /  1021.6hPa SSW 6.0mph /  9.7km/h 19.0mph /  30.6km/h 58% 0.00in /  0mm
00:39 35.3 °F /  1.8 °C 22.0 °F /  -5.6 °C 30.17in /  1021.6hPa SSW 11.0mph /  17.7km/h 22.0mph /  35.4km/h 58% 0.00in /  0mm
00:44 35.3 °F /  1.8 °C 22.0 °F /  -5.6 °C 30.17in /  1021.6hPa SSW 8.0mph /  12.9km/h 22.0mph /  35.4km/h 58% 0.00in /  0mm
00:49 35.5 °F /  1.9 °C 22.2 °F /  -5.4 °C 30.17in /  1021.6hPa SSW 11.0mph /  17.7km/h 19.0mph /  30.6km/h 58% 0.00in /  0mm
00:54 35.5 °F /  1.9 °C 22.2 °F /  -5.4 °C 30.17in /  1021.6hPa SSW 8.0mph /  12.9km/h 19.0mph /  30.6km/h 58% 0.00in /  0mm
00:59 35.6 °F /  2 °C 21.9 °F /  -5.6 °C 30.17in /  1021.6hPa SSW 12.0mph /  19.3km/h 20.0mph /  32.2km/h 57% 0.00in /  0mm
01:04 35.7 °F /  2.1 °C 22.0 °F /  -5.6 °C 30.16in /  1021.2hPa SSW 11.0mph /  17.7km/h 23.0mph /  37km/h 57% 0.00in /  0mm
01:09 35.8 °F /  2.1 °C 21.6 °F /  -5.8 °C 30.16in /  1021.2hPa SSW 8.0mph /  12.9km/h 23.0mph /  37km/h 56% 0.00in /  0mm
01:14 35.9 °F /  2.2 °C 21.7 °F /  -5.7 °C 30.16in /  1021.2hPa SSW 11.0mph /  17.7km/h 23.0mph /  37km/h 56% 0.00in /  0mm
01:19 35.9 °F /  2.2 °C 21.3 °F /  -5.9 °C 30.16in /  1021.2hPa SSW 10.0mph /  16.1km/h 22.0mph /  35.4km/h 55% 0.00in /  0mm
01:24 35.9 °F /  2.2 °C 21.3 °F /  -5.9 °C 30.16in /  1021.2hPa SSW 11.0mph /  17.7km/h 27.0mph /  43.5km/h 55% 0.00in /  0mm
01:29 36.0 °F /  2.2 °C 21.4 °F /  -5.9 °C 30.16in /  1021.2hPa SSW 10.0mph /  16.1km/h 27.0mph /  43.5km/h 55% 0.00in /  0mm
01:34 36.0 °F /  2.2 °C 21.4 °F /  -5.9 °C 30.16in /  1021.2hPa SSW 11.0mph /  17.7km/h 22.0mph /  35.4km/h 55% 0.00in /  0mm
01:39 36.0 °F /  2.2 °C 21.0 °F /  -6.1 °C 30.16in /  1021.2hPa SSW 11.0mph /  17.7km/h 22.0mph /  35.4km/h 54% 0.00in /  0mm
01:44 36.0 °F /  2.2 °C 21.4 °F /  -5.9 °C 30.16in /  1021.2hPa SSW 11.0mph /  17.7km/h 24.0mph /  38.6km/h 55% 0.00in /  0mm
01:49 36.0 °F /  2.2 °C 21.4 °F /  -5.9 °C 30.16in /  1021.2hPa SSW 8.0mph /  12.9km/h 24.0mph /  38.6km/h 55% 0.00in /  0mm
01:54 35.9 °F /  2.2 °C 21.3 °F /  -5.9 °C 30.16in /  1021.2hPa SSW 9.0mph /  14.5km/h 23.0mph /  37km/h 55% 0.00in /  0mm
01:59 35.9 °F /  2.2 °C 21.3 °F /  -5.9 °C 30.16in /  1021.2hPa South 11.0mph /  17.7km/h 23.0mph /  37km/h 55% 0.00in /  0mm
02:04 35.9 °F /  2.2 °C 21.3 °F /  -5.9 °C 30.16in /  1021.2hPa SSW 9.0mph /  14.5km/h 27.0mph /  43.5km/h 55% 0.00in /  0mm
02:09 35.9 °F /  2.2 °C 21.3 °F /  -5.9 °C 30.16in /  1021.2hPa SSW 11.0mph /  17.7km/h 27.0mph /  43.5km/h 55% 0.00in /  0mm
02:14 35.9 °F /  2.2 °C 20.9 °F /  -6.2 °C 30.16in /  1021.2hPa SSW 10.0mph /  16.1km/h 22.0mph /  35.4km/h 54% 0.00in /  0mm
02:19 36.0 °F /  2.2 °C 21.0 °F /  -6.1 °C 30.16in /  1021.2hPa SSW 13.0mph /  20.9km/h 25.0mph /  40.2km/h 54% 0.00in /  0mm
02:24 36.0 °F /  2.2 °C 21.0 °F /  -6.1 °C 30.16in /  1021.2hPa SSW 12.0mph /  19.3km/h 25.0mph /  40.2km/h 54% 0.00in /  0mm
02:29 36.0 °F /  2.2 °C 21.0 °F /  -6.1 °C 30.15in /  1020.9hPa SSW 11.0mph /  17.7km/h 26.0mph /  41.8km/h 54% 0.00in /  0mm
02:34 36.1 °F /  2.3 °C 20.6 °F /  -6.3 °C 30.15in /  1020.9hPa SSW 12.0mph /  19.3km/h 26.0mph /  41.8km/h 53% 0.00in /  0mm
02:39 36.1 °F /  2.3 °C 20.6 °F /  -6.3 °C 30.15in /  1020.9hPa SSW 11.0mph /  17.7km/h 22.0mph /  35.4km/h 53% 0.00in /  0mm
02:44 36.2 °F /  2.3 °C 20.7 °F /  -6.3 °C 30.14in /  1020.5hPa SSW 11.0mph /  17.7km/h 29.0mph /  46.7km/h 53% 0.00in /  0mm
02:54 36.4 °F /  2.4 °C 20.9 °F /  -6.2 °C 30.15in /  1020.9hPa SSW 11.0mph /  17.7km/h 30.0mph /  48.3km/h 53% 0.00in /  0mm
02:59 36.4 °F /  2.4 °C 20.4 °F /  -6.4 °C 30.15in /  1020.9hPa SSW 9.0mph /  14.5km/h 23.0mph /  37km/h 52% 0.00in /  0mm
03:04 36.5 °F /  2.5 °C 20.5 °F /  -6.4 °C 30.15in /  1020.9hPa SSW 14.0mph /  22.5km/h 23.0mph /  37km/h 52% 0.00in /  0mm
03:09 36.6 °F /  2.6 °C 20.2 °F /  -6.6 °C 30.15in /  1020.9hPa SSW 13.0mph /  20.9km/h 22.0mph /  35.4km/h 51% 0.00in /  0mm
03:14 36.7 °F /  2.6 °C 20.3 °F /  -6.5 °C 30.15in /  1020.9hPa SSW 11.0mph /  17.7km/h 22.0mph /  35.4km/h 51% 0.00in /  0mm
03:24 36.8 °F /  2.7 °C 19.9 °F /  -6.7 °C 30.15in /  1020.9hPa SSW 10.0mph /  16.1km/h 20.0mph /  32.2km/h 50% 0.00in /  0mm
03:29 36.8 °F /  2.7 °C 19.4 °F /  -7 °C 30.15in /  1020.9hPa SSW 10.0mph /  16.1km/h 24.0mph /  38.6km/h 49% 0.00in /  0mm
03:34 36.7 °F /  2.6 °C 19.8 °F /  -6.8 °C 30.16in /  1021.2hPa SSW 9.0mph /  14.5km/h 24.0mph /  38.6km/h 50% 0.00in /  0mm
03:39 36.6 °F /  2.6 °C 19.7 °F /  -6.8 °C 30.15in /  1020.9hPa SSW 14.0mph /  22.5km/h 24.0mph /  38.6km/h 50% 0.00in /  0mm
03:44 36.6 °F /  2.6 °C 19.7 °F /  -6.8 °C 30.15in /  1020.9hPa SSW 10.0mph /  16.1km/h 24.0mph /  38.6km/h 50% 0.00in /  0mm
03:49 36.4 °F /  2.4 °C 20.0 °F /  -6.7 °C 30.16in /  1021.2hPa SW 11.0mph /  17.7km/h 23.0mph /  37km/h 51% 0.00in /  0mm
03:54 36.3 °F /  2.4 °C 20.4 °F /  -6.4 °C 30.16in /  1021.2hPa SW 10.0mph /  16.1km/h 23.0mph /  37km/h 52% 0.00in /  0mm
03:59 36.3 °F /  2.4 °C 20.4 °F /  -6.4 °C 30.16in /  1021.2hPa SSW 10.0mph /  16.1km/h 25.0mph /  40.2km/h 52% 0.00in /  0mm
04:04 36.2 °F /  2.3 °C 19.8 °F /  -6.8 °C 30.16in /  1021.2hPa SW 13.0mph /  20.9km/h 25.0mph /  40.2km/h 51% 0.00in /  0mm
04:09 36.2 °F /  2.3 °C 20.3 °F /  -6.5 °C 30.16in /  1021.2hPa SSW 10.0mph /  16.1km/h 24.0mph /  38.6km/h 52% 0.00in /  0mm
04:14 36.1 °F /  2.3 °C 20.2 °F /  -6.6 °C 30.16in /  1021.2hPa SW 14.0mph /  22.5km/h 19.0mph /  30.6km/h 52% 0.00in /  0mm
04:19 36.1 °F /  2.3 °C 20.2 °F /  -6.6 °C 30.16in /  1021.2hPa SSW 10.0mph /  16.1km/h 21.0mph /  33.8km/h 52% 0.00in /  0mm
04:24 36.0 °F /  2.2 °C 20.1 °F /  -6.6 °C 30.16in /  1021.2hPa SSW 11.0mph /  17.7km/h 21.0mph /  33.8km/h 52% 0.00in /  0mm
04:29 36.0 °F /  2.2 °C 20.5 °F /  -6.4 °C 30.16in /  1021.2hPa SSW 6.0mph /  9.7km/h 20.0mph /  32.2km/h 53% 0.00in /  0mm
04:34 35.9 °F /  2.2 °C 20.4 °F /  -6.4 °C 30.16in /  1021.2hPa SSW 9.0mph /  14.5km/h 19.0mph /  30.6km/h 53% 0.00in /  0mm
04:39 36.0 °F /  2.2 °C 20.5 °F /  -6.4 °C 30.16in /  1021.2hPa SW 6.0mph /  9.7km/h 19.0mph /  30.6km/h 53% 0.00in /  0mm
04:44 35.9 °F /  2.2 °C 20.0 °F /  -6.7 °C 30.16in /  1021.2hPa SSW 9.0mph /  14.5km/h 21.0mph /  33.8km/h 52% 0.00in /  0mm
04:49 35.8 °F /  2.1 °C 19.9 °F /  -6.7 °C 30.16in /  1021.2hPa SSW 7.0mph /  11.3km/h 21.0mph /  33.8km/h 52% 0.00in /  0mm
04:54 35.7 °F /  2.1 °C 19.8 °F /  -6.8 °C 30.16in /  1021.2hPa SSW 6.0mph /  9.7km/h 18.0mph /  29km/h 52% 0.00in /  0mm
04:59 35.8 °F /  2.1 °C 19.9 °F /  -6.7 °C 30.17in /  1021.6hPa SSW 9.0mph /  14.5km/h 18.0mph /  29km/h 52% 0.00in /  0mm
05:04 35.8 °F /  2.1 °C 19.9 °F /  -6.7 °C 30.18in /  1021.9hPa SW 9.0mph /  14.5km/h 16.0mph /  25.7km/h 52% 0.00in /  0mm
05:09 35.7 °F /  2.1 °C 20.2 °F /  -6.6 °C 30.18in /  1021.9hPa SSW 7.0mph /  11.3km/h 17.0mph /  27.4km/h 53% 0.00in /  0mm
05:14 35.7 °F /  2.1 °C 20.2 °F /  -6.6 °C 30.18in /  1021.9hPa SSW 9.0mph /  14.5km/h 21.0mph /  33.8km/h 53% 0.00in /  0mm
05:19 35.6 °F /  2 °C 20.2 °F /  -6.6 °C 30.18in /  1021.9hPa SSW 7.0mph /  11.3km/h 21.0mph /  33.8km/h 53% 0.00in /  0mm
05:24 35.6 °F /  2 °C 20.2 °F /  -6.6 °C 30.17in /  1021.6hPa SSW 10.0mph /  16.1km/h 18.0mph /  29km/h 53% 0.00in /  0mm
05:29 35.5 °F /  1.9 °C 20.1 °F /  -6.6 °C 30.17in /  1021.6hPa SSW 6.0mph /  9.7km/h 18.0mph /  29km/h 53% 0.00in /  0mm
05:34 35.6 °F /  2 °C 20.2 °F /  -6.6 °C 30.17in /  1021.6hPa SSW 11.0mph /  17.7km/h 18.0mph /  29km/h 53% 0.00in /  0mm
05:39 35.7 °F /  2.1 °C 20.2 °F /  -6.6 °C 30.17in /  1021.6hPa SSW 9.0mph /  14.5km/h 19.0mph /  30.6km/h 53% 0.00in /  0mm
05:44 35.7 °F /  2.1 °C 20.2 °F /  -6.6 °C 30.16in /  1021.2hPa SSW 10.0mph /  16.1km/h 20.0mph /  32.2km/h 53% 0.00in /  0mm
05:49 35.7 °F /  2.1 °C 20.2 °F /  -6.6 °C 30.16in /  1021.2hPa SSW 8.0mph /  12.9km/h 20.0mph /  32.2km/h 53% 0.00in /  0mm
05:54 35.8 °F /  2.1 °C 19.9 °F /  -6.7 °C 30.16in /  1021.2hPa SW 10.0mph /  16.1km/h 18.0mph /  29km/h 52% 0.00in /  0mm
05:59 35.9 °F /  2.2 °C 20.0 °F /  -6.7 °C 30.16in /  1021.2hPa SW 9.0mph /  14.5km/h 20.0mph /  32.2km/h 52% 0.00in /  0mm
06:04 35.9 °F /  2.2 °C 20.0 °F /  -6.7 °C 30.17in /  1021.6hPa SSW 7.0mph /  11.3km/h 20.0mph /  32.2km/h 52% 0.00in /  0mm
06:09 35.9 °F /  2.2 °C 20.0 °F /  -6.7 °C 30.17in /  1021.6hPa SSW 8.0mph /  12.9km/h 23.0mph /  37km/h 52% 0.00in /  0mm
06:14 35.9 °F /  2.2 °C 20.0 °F /  -6.7 °C 30.17in /  1021.6hPa SSW 10.0mph /  16.1km/h 23.0mph /  37km/h 52% 0.00in /  0mm
06:19 36.0 °F /  2.2 °C 20.1 °F /  -6.6 °C 30.16in /  1021.2hPa SSW 8.0mph /  12.9km/h 22.0mph /  35.4km/h 52% 0.00in /  0mm
06:24 36.0 °F /  2.2 °C 20.1 °F /  -6.6 °C 30.16in /  1021.2hPa SSW 9.0mph /  14.5km/h 22.0mph /  35.4km/h 52% 0.00in /  0mm
06:29 36.0 °F /  2.2 °C 20.1 °F /  -6.6 °C 30.16in /  1021.2hPa SSW 11.0mph /  17.7km/h 22.0mph /  35.4km/h 52% 0.00in /  0mm
06:34 36.0 °F /  2.2 °C 19.6 °F /  -6.9 °C 30.15in /  1020.9hPa SSW 8.0mph /  12.9km/h 22.0mph /  35.4km/h 51% 0.00in /  0mm
06:39 36.0 °F /  2.2 °C 19.6 °F /  -6.9 °C 30.16in /  1021.2hPa SSW 11.0mph /  17.7km/h 22.0mph /  35.4km/h 51% 0.00in /  0mm
06:44 36.0 °F /  2.2 °C 19.6 °F /  -6.9 °C 30.17in /  1021.6hPa SSW 8.0mph /  12.9km/h 18.0mph /  29km/h 51% 0.00in /  0mm
06:49 36.1 °F /  2.3 °C 19.7 °F /  -6.8 °C 30.17in /  1021.6hPa SW 7.0mph /  11.3km/h 22.0mph /  35.4km/h 51% 0.00in /  0mm
06:54 36.1 °F /  2.3 °C 19.7 °F /  -6.8 °C 30.17in /  1021.6hPa SW 8.0mph /  12.9km/h 22.0mph /  35.4km/h 51% 0.00in /  0mm
06:59 36.2 °F /  2.3 °C 19.8 °F /  -6.8 °C 30.17in /  1021.6hPa SSW 9.0mph /  14.5km/h 21.0mph /  33.8km/h 51% 0.00in /  0mm
07:04 36.2 °F /  2.3 °C 19.8 °F /  -6.8 °C 30.17in /  1021.6hPa SW 8.0mph /  12.9km/h 21.0mph /  33.8km/h 51% 0.00in /  0mm
07:09 36.2 °F /  2.3 °C 19.8 °F /  -6.8 °C 30.17in /  1021.6hPa SSW 9.0mph /  14.5km/h 18.0mph /  29km/h 51% 0.00in /  0mm
07:14 36.2 °F /  2.3 °C 19.8 °F /  -6.8 °C 30.17in /  1021.6hPa SSW 6.0mph /  9.7km/h 17.0mph /  27.4km/h 51% 0.00in /  0mm
07:19 36.2 °F /  2.3 °C 19.8 °F /  -6.8 °C 30.17in /  1021.6hPa SSW 8.0mph /  12.9km/h 17.0mph /  27.4km/h 51% 0.00in /  0mm
07:24 36.2 °F /  2.3 °C 19.8 °F /  -6.8 °C 30.18in /  1021.9hPa SSW 8.0mph /  12.9km/h 23.0mph /  37km/h 51% 0.00in /  0mm
07:29 36.3 °F /  2.4 °C 19.9 °F /  -6.7 °C 30.18in /  1021.9hPa SSW 8.0mph /  12.9km/h 23.0mph /  37km/h 51% 0.00in /  0mm
07:34 36.3 °F /  2.4 °C 19.9 °F /  -6.7 °C 30.18in /  1021.9hPa SSW 7.0mph /  11.3km/h 18.0mph /  29km/h 51% 0.00in /  0mm
07:44 36.3 °F /  2.4 °C 19.4 °F /  -7 °C 30.17in /  1021.6hPa SSW 8.0mph /  12.9km/h 18.0mph /  29km/h 50% 0.00in /  0mm
07:49 36.3 °F /  2.4 °C 19.4 °F /  -7 °C 30.17in /  1021.6hPa SSW 8.0mph /  12.9km/h 20.0mph /  32.2km/h 50% 0.00in /  0mm
07:54 36.3 °F /  2.4 °C 19.4 °F /  -7 °C 30.18in /  1021.9hPa SSW 8.0mph /  12.9km/h 20.0mph /  32.2km/h 50% 0.00in /  0mm
07:59 36.3 °F /  2.4 °C 19.4 °F /  -7 °C 30.18in /  1021.9hPa SSW 6.0mph /  9.7km/h 17.0mph /  27.4km/h 50% 0.00in /  0mm
08:04 36.5 °F /  2.5 °C 19.6 °F /  -6.9 °C 30.18in /  1021.9hPa SSW 10.0mph /  16.1km/h 19.0mph /  30.6km/h 50% 0.00in /  0mm
08:09 36.7 °F /  2.6 °C 19.8 °F /  -6.8 °C 30.18in /  1021.9hPa SW 6.0mph /  9.7km/h 19.0mph /  30.6km/h 50% 0.00in /  0mm
08:14 36.8 °F /  2.7 °C 19.4 °F /  -7 °C 30.18in /  1021.9hPa SSW 6.0mph /  9.7km/h 16.0mph /  25.7km/h 49% 0.00in /  0mm
08:19 36.8 °F /  2.7 °C 19.4 °F /  -7 °C 30.18in /  1021.9hPa SSW 10.0mph /  16.1km/h 17.0mph /  27.4km/h 49% 0.00in /  0mm
08:24 36.9 °F /  2.7 °C 19.5 °F /  -6.9 °C 30.18in /  1021.9hPa SSW 7.0mph /  11.3km/h 18.0mph /  29km/h 49% 0.00in /  0mm
08:34 37.1 °F /  2.8 °C 19.7 °F /  -6.8 °C 30.18in /  1021.9hPa SSW 8.0mph /  12.9km/h 18.0mph /  29km/h 49% 0.00in /  0mm
08:39 37.2 °F /  2.9 °C 19.8 °F /  -6.8 °C 30.18in /  1021.9hPa SSW 8.0mph /  12.9km/h 15.0mph /  24.1km/h 49% 0.00in /  0mm
08:44 37.3 °F /  2.9 °C 19.9 °F /  -6.7 °C 30.18in /  1021.9hPa SSW 7.0mph /  11.3km/h 19.0mph /  30.6km/h 49% 0.00in /  0mm
08:49 37.3 °F /  2.9 °C 19.9 °F /  -6.7 °C 30.18in /  1021.9hPa SSW 10.0mph /  16.1km/h 21.0mph /  33.8km/h 49% 0.00in /  0mm
08:54 37.3 °F /  2.9 °C 19.4 °F /  -7 °C 30.18in /  1021.9hPa SW 10.0mph /  16.1km/h 21.0mph /  33.8km/h 48% 0.00in /  0mm
08:59 37.4 °F /  3 °C 20.0 °F /  -6.7 °C 30.18in /  1021.9hPa SSW 7.0mph /  11.3km/h 14.0mph /  22.5km/h 49% 0.00in /  0mm
09:04 37.6 °F /  3.1 °C 19.7 °F /  -6.8 °C 30.17in /  1021.6hPa SSW 9.0mph /  14.5km/h 18.0mph /  29km/h 48% 0.00in /  0mm
09:09 37.8 °F /  3.2 °C 19.9 °F /  -6.7 °C 30.18in /  1021.9hPa SSW 9.0mph /  14.5km/h 18.0mph /  29km/h 48% 0.00in /  0mm
09:14 38.0 °F /  3.3 °C 20.0 °F /  -6.7 °C 30.18in /  1021.9hPa SSW 5.0mph /  8km/h 16.0mph /  25.7km/h 48% 0.00in /  0mm
09:19 38.2 °F /  3.4 °C 20.2 °F /  -6.6 °C 30.18in /  1021.9hPa SW 5.0mph /  8km/h 16.0mph /  25.7km/h 48% 0.00in /  0mm
09:24 38.6 °F /  3.7 °C 20.6 °F /  -6.3 °C 30.18in /  1021.9hPa SW 7.0mph /  11.3km/h 16.0mph /  25.7km/h 48% 0.00in /  0mm
09:29 39.2 °F /  4 °C 20.2 °F /  -6.6 °C 30.18in /  1021.9hPa SW 11.0mph /  17.7km/h 18.0mph /  29km/h 46% 0.00in /  0mm
09:34 39.7 °F /  4.3 °C 20.6 °F /  -6.3 °C 30.18in /  1021.9hPa SSW 7.0mph /  11.3km/h 18.0mph /  29km/h 46% 0.00in /  0mm
09:39 39.9 °F /  4.4 °C 20.3 °F /  -6.5 °C 30.18in /  1021.9hPa SW 9.0mph /  14.5km/h 20.0mph /  32.2km/h 45% 0.00in /  0mm
09:49 40.8 °F /  4.9 °C 20.6 °F /  -6.3 °C 30.17in /  1021.6hPa SSW 11.0mph /  17.7km/h 24.0mph /  38.6km/h 44% 0.00in /  0mm
09:54 40.6 °F /  4.8 °C 20.4 °F /  -6.4 °C 30.17in /  1021.6hPa SSW 9.0mph /  14.5km/h 24.0mph /  38.6km/h 44% 0.00in /  0mm
09:59 40.1 °F /  4.5 °C 19.9 °F /  -6.7 °C 30.17in /  1021.6hPa SSW 8.0mph /  12.9km/h 19.0mph /  30.6km/h 44% 0.00in /  0mm
10:04 40.4 °F /  4.7 °C 20.7 °F /  -6.3 °C 30.16in /  1021.2hPa SSW 7.0mph /  11.3km/h 20.0mph /  32.2km/h 45% 0.00in /  0mm
10:09 40.9 °F /  4.9 °C 20.7 °F /  -6.3 °C 30.16in /  1021.2hPa SSW 7.0mph /  11.3km/h 20.0mph /  32.2km/h 44% 0.00in /  0mm
10:14 41.0 °F /  5 °C 20.2 °F /  -6.6 °C 30.15in /  1020.9hPa SSW 11.0mph /  17.7km/h 19.0mph /  30.6km/h 43% 0.00in /  0mm
10:19 40.9 °F /  4.9 °C 20.1 °F /  -6.6 °C 30.16in /  1021.2hPa SW 10.0mph /  16.1km/h 20.0mph /  32.2km/h 43% 0.00in /  0mm
10:24 40.7 °F /  4.8 °C 20.5 °F /  -6.4 °C 30.14in /  1020.5hPa SSW 9.0mph /  14.5km/h 20.0mph /  32.2km/h 44% 0.00in /  0mm
10:29 40.9 °F /  4.9 °C 20.1 °F /  -6.6 °C 30.15in /  1020.9hPa SSW 11.0mph /  17.7km/h 20.0mph /  32.2km/h 43% 0.00in /  0mm
10:34 41.8 °F /  5.4 °C 20.4 °F /  -6.4 °C 30.14in /  1020.5hPa SSW 11.0mph /  17.7km/h 19.0mph /  30.6km/h 42% 0.00in /  0mm
10:39 42.4 °F /  5.8 °C 20.9 °F /  -6.2 °C 30.14in /  1020.5hPa SSW 7.0mph /  11.3km/h 19.0mph /  30.6km/h 42% 0.00in /  0mm
10:49 42.6 °F /  5.9 °C 21.1 °F /  -6.1 °C 30.14in /  1020.5hPa SW 5.0mph /  8km/h 21.0mph /  33.8km/h 42% 0.00in /  0mm
10:54 43.6 °F /  6.4 °C 20.9 °F /  -6.2 °C 30.14in /  1020.5hPa SSW 7.0mph /  11.3km/h 21.0mph /  33.8km/h 40% 0.00in /  0mm
10:59 43.7 °F /  6.5 °C 21.0 °F /  -6.1 °C 30.13in /  1020.2hPa SSW 9.0mph /  14.5km/h 18.0mph /  29km/h 40% 0.00in /  0mm
11:04 43.5 °F /  6.4 °C 20.2 °F /  -6.6 °C 30.13in /  1020.2hPa SW 13.0mph /  20.9km/h 18.0mph /  29km/h 39% 0.00in /  0mm
11:09 43.2 °F /  6.2 °C 21.1 °F /  -6.1 °C 30.13in /  1020.2hPa SSW 7.0mph /  11.3km/h 19.0mph /  30.6km/h 41% 0.00in /  0mm
11:14 43.4 °F /  6.3 °C 20.1 °F /  -6.6 °C 30.13in /  1020.2hPa SSW 10.0mph /  16.1km/h 19.0mph /  30.6km/h 39% 0.00in /  0mm
11:19 44.1 °F /  6.7 °C 20.7 °F /  -6.3 °C 30.13in /  1020.2hPa SW 10.0mph /  16.1km/h 18.0mph /  29km/h 39% 0.00in /  0mm
11:24 44.4 °F /  6.9 °C 21.0 °F /  -6.1 °C 30.13in /  1020.2hPa SSW 10.0mph /  16.1km/h 20.0mph /  32.2km/h 39% 0.00in /  0mm
11:29 44.7 °F /  7.1 °C 20.6 °F /  -6.3 °C 30.13in /  1020.2hPa SSW 12.0mph /  19.3km/h 22.0mph /  35.4km/h 38% 0.00in /  0mm
11:34 44.3 °F /  6.8 °C 20.3 °F /  -6.5 °C 30.12in /  1019.9hPa SSW 10.0mph /  16.1km/h 22.0mph /  35.4km/h 38% 0.00in /  0mm
11:39 44.4 °F /  6.9 °C 20.4 °F /  -6.4 °C 30.12in /  1019.9hPa SSW 14.0mph /  22.5km/h 24.0mph /  38.6km/h 38% 0.00in /  0mm
11:44 44.6 °F /  7 °C 20.6 °F /  -6.3 °C 30.12in /  1019.9hPa SSW 10.0mph /  16.1km/h 24.0mph /  38.6km/h 38% 0.00in /  0mm
11:49 44.5 °F /  6.9 °C 20.5 °F /  -6.4 °C 30.12in /  1019.9hPa SW 11.0mph /  17.7km/h 21.0mph /  33.8km/h 38% 0.00in /  0mm
11:54 45.0 °F /  7.2 °C 21.5 °F /  -5.8 °C 30.12in /  1019.9hPa SW 8.0mph /  12.9km/h 21.0mph /  33.8km/h 39% 0.00in /  0mm
11:59 45.3 °F /  7.4 °C 21.2 °F /  -6 °C 30.12in /  1019.9hPa SW 12.0mph /  19.3km/h 22.0mph /  35.4km/h 38% 0.00in /  0mm
12:04 45.3 °F /  7.4 °C 20.6 °F /  -6.3 °C 30.12in /  1019.9hPa SW 10.0mph /  16.1km/h 22.0mph /  35.4km/h 37% 0.00in /  0mm
12:09 44.4 °F /  6.9 °C 19.7 °F /  -6.8 °C 30.12in /  1019.9hPa SSW 11.0mph /  17.7km/h 20.0mph /  32.2km/h 37% 0.00in /  0mm
12:14 44.5 °F /  6.9 °C 21.7 °F /  -5.7 °C 30.12in /  1019.9hPa SSW 9.0mph /  14.5km/h 20.0mph /  32.2km/h 40% 0.00in /  0mm
12:19 45.3 °F /  7.4 °C 21.2 °F /  -6 °C 30.12in /  1019.9hPa SSW 8.0mph /  12.9km/h 18.0mph /  29km/h 38% 0.00in /  0mm
12:24 46.5 °F /  8.1 °C 21.6 °F /  -5.8 °C 30.12in /  1019.9hPa SSW 8.0mph /  12.9km/h 16.0mph /  25.7km/h 37% 0.00in /  0mm
12:29 45.5 °F /  7.5 °C 20.1 °F /  -6.6 °C 30.12in /  1019.9hPa SW 11.0mph /  17.7km/h 19.0mph /  30.6km/h 36% 0.00in /  0mm
12:34 44.7 °F /  7.1 °C 20.6 °F /  -6.3 °C 30.12in /  1019.9hPa SSW 7.0mph /  11.3km/h 19.0mph /  30.6km/h 38% 0.00in /  0mm
12:39 45.9 °F /  7.7 °C 21.1 °F /  -6.1 °C 30.12in /  1019.9hPa SSW 11.0mph /  17.7km/h 16.0mph /  25.7km/h 37% 0.00in /  0mm
12:44 45.8 °F /  7.7 °C 20.4 °F /  -6.4 °C 30.12in /  1019.9hPa SW 10.0mph /  16.1km/h 22.0mph /  35.4km/h 36% 0.00in /  0mm
12:49 45.9 °F /  7.7 °C 20.4 °F /  -6.4 °C 30.12in /  1019.9hPa SW 10.0mph /  16.1km/h 22.0mph /  35.4km/h 36% 0.00in /  0mm
12:54 46.1 °F /  7.8 °C 20.6 °F /  -6.3 °C 30.11in /  1019.5hPa SW 11.0mph /  17.7km/h 18.0mph /  29km/h 36% 0.00in /  0mm
12:59 46.7 °F /  8.2 °C 21.8 °F /  -5.7 °C 30.11in /  1019.5hPa SW 7.0mph /  11.3km/h 17.0mph /  27.4km/h 37% 0.00in /  0mm
13:04 47.3 °F /  8.5 °C 21.7 °F /  -5.7 °C 30.11in /  1019.5hPa SSW 9.0mph /  14.5km/h 15.0mph /  24.1km/h 36% 0.00in /  0mm
13:09 46.5 °F /  8.1 °C 21.0 °F /  -6.1 °C 30.11in /  1019.5hPa SSW 11.0mph /  17.7km/h 19.0mph /  30.6km/h 36% 0.00in /  0mm
13:14 46.2 °F /  7.9 °C 21.4 °F /  -5.9 °C 30.11in /  1019.5hPa SSW 7.0mph /  11.3km/h 19.0mph /  30.6km/h 37% 0.00in /  0mm
13:19 46.0 °F /  7.8 °C 21.2 °F /  -6 °C 30.10in /  1019.2hPa SSW 7.0mph /  11.3km/h 16.0mph /  25.7km/h 37% 0.00in /  0mm
13:24 46.4 °F /  8 °C 21.5 °F /  -5.8 °C 30.10in /  1019.2hPa SSW 8.0mph /  12.9km/h 16.0mph /  25.7km/h 37% 0.00in /  0mm
13:29 45.6 °F /  7.6 °C 21.5 °F /  -5.8 °C 30.10in /  1019.2hPa SSW 7.0mph /  11.3km/h 13.0mph /  20.9km/h 38% 0.00in /  0mm
13:34 45.0 °F /  7.2 °C 21.5 °F /  -5.8 °C 30.10in /  1019.2hPa SSW 6.0mph /  9.7km/h 12.0mph /  19.3km/h 39% 0.00in /  0mm
13:39 45.6 °F /  7.6 °C 22.1 °F /  -5.5 °C 30.09in /  1018.8hPa SW 4.0mph /  6.4km/h 12.0mph /  19.3km/h 39% 0.00in /  0mm
13:44 46.4 °F /  8 °C 21.5 °F /  -5.8 °C 30.09in /  1018.8hPa SSW 9.0mph /  14.5km/h 14.0mph /  22.5km/h 37% 0.00in /  0mm
13:49 46.5 °F /  8.1 °C 22.3 °F /  -5.4 °C 30.09in /  1018.8hPa SSW 5.0mph /  8km/h 14.0mph /  22.5km/h 38% 0.00in /  0mm
13:54 46.4 °F /  8 °C 21.5 °F /  -5.8 °C 30.09in /  1018.8hPa SSW 7.0mph /  11.3km/h 14.0mph /  22.5km/h 37% 0.00in /  0mm
13:59 46.7 °F /  8.2 °C 21.8 °F /  -5.7 °C 30.09in /  1018.8hPa SSW 9.0mph /  14.5km/h 17.0mph /  27.4km/h 37% 0.00in /  0mm
14:04 46.9 °F /  8.3 °C 22.0 °F /  -5.6 °C 30.08in /  1018.5hPa SW 5.0mph /  8km/h 17.0mph /  27.4km/h 37% 0.00in /  0mm
14:09 46.4 °F /  8 °C 21.5 °F /  -5.8 °C 30.08in /  1018.5hPa SSW 7.0mph /  11.3km/h 16.0mph /  25.7km/h 37% 0.00in /  0mm
14:14 47.2 °F /  8.4 °C 22.9 °F /  -5.1 °C 30.08in /  1018.5hPa SSW 6.0mph /  9.7km/h 12.0mph /  19.3km/h 38% 0.00in /  0mm
14:19 47.9 °F /  8.8 °C 22.9 °F /  -5.1 °C 30.08in /  1018.5hPa SW 5.0mph /  8km/h 13.0mph /  20.9km/h 37% 0.00in /  0mm
14:24 48.2 °F /  9 °C 22.5 °F /  -5.3 °C 30.08in /  1018.5hPa SSW 9.0mph /  14.5km/h 17.0mph /  27.4km/h 36% 0.00in /  0mm
14:29 48.1 °F /  8.9 °C 22.4 °F /  -5.3 °C 30.08in /  1018.5hPa SSW 8.0mph /  12.9km/h 17.0mph /  27.4km/h 36% 0.00in /  0mm
14:34 48.5 °F /  9.2 °C 22.8 °F /  -5.1 °C 30.08in /  1018.5hPa SSW 6.0mph /  9.7km/h 15.0mph /  24.1km/h 36% 0.00in /  0mm
14:39 48.3 °F /  9.1 °C 22.6 °F /  -5.2 °C 30.08in /  1018.5hPa SSW 7.0mph /  11.3km/h 16.0mph /  25.7km/h 36% 0.00in /  0mm
14:44 48.3 °F /  9.1 °C 22.6 °F /  -5.2 °C 30.08in /  1018.5hPa SSW 6.0mph /  9.7km/h 16.0mph /  25.7km/h 36% 0.00in /  0mm
14:49 47.9 °F /  8.8 °C 22.2 °F /  -5.4 °C 30.07in /  1018.2hPa SSW 7.0mph /  11.3km/h 16.0mph /  25.7km/h 36% 0.00in /  0mm
14:54 47.7 °F /  8.7 °C 22.0 °F /  -5.6 °C 30.07in /  1018.2hPa SSW 7.0mph /  11.3km/h 16.0mph /  25.7km/h 36% 0.00in /  0mm
14:59 47.4 °F /  8.6 °C 21.8 °F /  -5.7 °C 30.07in /  1018.2hPa SSW 8.0mph /  12.9km/h 16.0mph /  25.7km/h 36% 0.00in /  0mm
15:04 47.0 °F /  8.3 °C 21.4 °F /  -5.9 °C 30.07in /  1018.2hPa SSW 7.0mph /  11.3km/h 15.0mph /  24.1km/h 36% 0.00in /  0mm
15:09 46.6 °F /  8.1 °C 21.7 °F /  -5.7 °C 30.07in /  1018.2hPa SSW 7.0mph /  11.3km/h 16.0mph /  25.7km/h 37% 0.00in /  0mm
15:14 46.6 °F /  8.1 °C 21.7 °F /  -5.7 °C 30.07in /  1018.2hPa SSW 7.0mph /  11.3km/h 16.0mph /  25.7km/h 37% 0.00in /  0mm
15:19 46.7 °F /  8.2 °C 21.8 °F /  -5.7 °C 30.07in /  1018.2hPa SSW 6.0mph /  9.7km/h 15.0mph /  24.1km/h 37% 0.00in /  0mm
15:24 46.8 °F /  8.2 °C 21.9 °F /  -5.6 °C 30.07in /  1018.2hPa SSW 4.0mph /  6.4km/h 15.0mph /  24.1km/h 37% 0.00in /  0mm
15:34 46.8 °F /  8.2 °C 21.9 °F /  -5.6 °C 30.07in /  1018.2hPa SW 7.0mph /  11.3km/h 12.0mph /  19.3km/h 37% 0.00in /  0mm
15:39 46.7 °F /  8.2 °C 21.2 °F /  -6 °C 30.07in /  1018.2hPa SSW 7.0mph /  11.3km/h 16.0mph /  25.7km/h 36% 0.00in /  0mm
15:44 46.5 °F /  8.1 °C 21.6 °F /  -5.8 °C 30.07in /  1018.2hPa South 5.0mph /  8km/h 16.0mph /  25.7km/h 37% 0.00in /  0mm
15:49 46.2 °F /  7.9 °C 21.4 °F /  -5.9 °C 30.06in /  1017.8hPa SSW 7.0mph /  11.3km/h 14.0mph /  22.5km/h 37% 0.00in /  0mm
15:54 46.1 °F /  7.8 °C 21.3 °F /  -5.9 °C 30.06in /  1017.8hPa South 7.0mph /  11.3km/h 16.0mph /  25.7km/h 37% 0.00in /  0mm
15:59 45.9 °F /  7.7 °C 21.1 °F /  -6.1 °C 30.06in /  1017.8hPa South 6.0mph /  9.7km/h 16.0mph /  25.7km/h 37% 0.00in /  0mm
16:04 45.8 °F /  7.7 °C 21.0 °F /  -6.1 °C 30.06in /  1017.8hPa SSW 7.0mph /  11.3km/h 15.0mph /  24.1km/h 37% 0.00in /  0mm
16:09 45.7 °F /  7.6 °C 21.5 °F /  -5.8 °C 30.06in /  1017.8hPa SSW 8.0mph /  12.9km/h 16.0mph /  25.7km/h 38% 0.00in /  0mm
16:14 45.7 °F /  7.6 °C 21.5 °F /  -5.8 °C 30.05in /  1017.5hPa SSW 7.0mph /  11.3km/h 17.0mph /  27.4km/h 38% 0.00in /  0mm
16:19 45.6 °F /  7.6 °C 21.5 °F /  -5.8 °C 30.05in /  1017.5hPa SSW 7.0mph /  11.3km/h 18.0mph /  29km/h 38% 0.00in /  0mm
16:24 45.5 °F /  7.5 °C 21.4 °F /  -5.9 °C 30.05in /  1017.5hPa SSW 7.0mph /  11.3km/h 18.0mph /  29km/h 38% 0.00in /  0mm
16:29 45.3 °F /  7.4 °C 21.2 °F /  -6 °C 30.05in /  1017.5hPa SSW 8.0mph /  12.9km/h 16.0mph /  25.7km/h 38% 0.00in /  0mm
16:34 45.3 °F /  7.4 °C 21.2 °F /  -6 °C 30.05in /  1017.5hPa SSW 6.0mph /  9.7km/h 16.0mph /  25.7km/h 38% 0.00in /  0mm
16:39 45.5 °F /  7.5 °C 21.4 °F /  -5.9 °C 30.05in /  1017.5hPa SSW 7.0mph /  11.3km/h 14.0mph /  22.5km/h 38% 0.00in /  0mm
16:44 45.6 °F /  7.6 °C 21.5 °F /  -5.8 °C 30.06in /  1017.8hPa SW 7.0mph /  11.3km/h 17.0mph /  27.4km/h 38% 0.00in /  0mm
16:49 45.5 °F /  7.5 °C 21.4 °F /  -5.9 °C 30.05in /  1017.5hPa SSW 5.0mph /  8km/h 17.0mph /  27.4km/h 38% 0.00in /  0mm
16:54 45.4 °F /  7.4 °C 21.9 °F /  -5.6 °C 30.06in /  1017.8hPa SSW 6.0mph /  9.7km/h 14.0mph /  22.5km/h 39% 0.00in /  0mm
16:59 45.5 °F /  7.5 °C 21.4 °F /  -5.9 °C 30.05in /  1017.5hPa SSW 9.0mph /  14.5km/h 17.0mph /  27.4km/h 38% 0.00in /  0mm
17:04 45.7 °F /  7.6 °C 21.5 °F /  -5.8 °C 30.06in /  1017.8hPa SSW 9.0mph /  14.5km/h 20.0mph /  32.2km/h 38% 0.00in /  0mm
17:09 45.7 °F /  7.6 °C 21.5 °F /  -5.8 °C 30.06in /  1017.8hPa SSW 10.0mph /  16.1km/h 20.0mph /  32.2km/h 38% 0.00in /  0mm
17:14 45.8 °F /  7.7 °C 22.2 °F /  -5.4 °C 30.06in /  1017.8hPa SSW 8.0mph /  12.9km/h 18.0mph /  29km/h 39% 0.00in /  0mm
17:19 45.8 °F /  7.7 °C 22.2 °F /  -5.4 °C 30.06in /  1017.8hPa SSW 5.0mph /  8km/h 17.0mph /  27.4km/h 39% 0.00in /  0mm
17:24 46.0 °F /  7.8 °C 22.4 °F /  -5.3 °C 30.06in /  1017.8hPa SSW 11.0mph /  17.7km/h 21.0mph /  33.8km/h 39% 0.00in /  0mm
17:34 46.1 °F /  7.8 °C 22.5 °F /  -5.3 °C 30.06in /  1017.8hPa SSW 10.0mph /  16.1km/h 22.0mph /  35.4km/h 39% 0.00in /  0mm
17:39 46.3 °F /  7.9 °C 22.7 °F /  -5.2 °C 30.07in /  1018.2hPa SSW 6.0mph /  9.7km/h 22.0mph /  35.4km/h 39% 0.00in /  0mm
17:44 46.2 °F /  7.9 °C 22.6 °F /  -5.2 °C 30.06in /  1017.8hPa SSW 10.0mph /  16.1km/h 20.0mph /  32.2km/h 39% 0.00in /  0mm
17:49 46.4 °F /  8 °C 22.8 °F /  -5.1 °C 30.07in /  1018.2hPa SSW 9.0mph /  14.5km/h 22.0mph /  35.4km/h 39% 0.00in /  0mm
17:54 46.4 °F /  8 °C 22.8 °F /  -5.1 °C 30.07in /  1018.2hPa SSW 9.0mph /  14.5km/h 22.0mph /  35.4km/h 39% 0.00in /  0mm
17:59 46.5 °F /  8.1 °C 22.9 °F /  -5.1 °C 30.07in /  1018.2hPa SSW 10.0mph /  16.1km/h 20.0mph /  32.2km/h 39% 0.00in /  0mm
18:04 46.5 °F /  8.1 °C 22.9 °F /  -5.1 °C 30.06in /  1017.8hPa SSW 10.0mph /  16.1km/h 20.0mph /  32.2km/h 39% 0.00in /  0mm
18:09 46.6 °F /  8.1 °C 23.0 °F /  -5 °C 30.06in /  1017.8hPa SSW 12.0mph /  19.3km/h 23.0mph /  37km/h 39% 0.00in /  0mm
18:14 46.5 °F /  8.1 °C 22.9 °F /  -5.1 °C 30.06in /  1017.8hPa SSW 4.0mph /  6.4km/h 23.0mph /  37km/h 39% 0.00in /  0mm
18:19 46.4 °F /  8 °C 22.8 °F /  -5.1 °C 30.06in /  1017.8hPa SSW 6.0mph /  9.7km/h 20.0mph /  32.2km/h 39% 0.00in /  0mm
18:24 46.3 °F /  7.9 °C 22.7 °F /  -5.2 °C 30.06in /  1017.8hPa SSW 8.0mph /  12.9km/h 20.0mph /  32.2km/h 39% 0.00in /  0mm
18:29 46.3 °F /  7.9 °C 22.7 °F /  -5.2 °C 30.06in /  1017.8hPa SSW 7.0mph /  11.3km/h 21.0mph /  33.8km/h 39% 0.00in /  0mm
18:34 46.2 °F /  7.9 °C 23.2 °F /  -4.9 °C 30.06in /  1017.8hPa SSW 8.0mph /  12.9km/h 21.0mph /  33.8km/h 40% 0.00in /  0mm
18:39 46.2 °F /  7.9 °C 23.2 °F /  -4.9 °C 30.06in /  1017.8hPa SSW 7.0mph /  11.3km/h 17.0mph /  27.4km/h 40% 0.00in /  0mm
18:44 46.3 °F /  7.9 °C 23.3 °F /  -4.8 °C 30.06in /  1017.8hPa SSW 7.0mph /  11.3km/h 23.0mph /  37km/h 40% 0.00in /  0mm
18:49 46.4 °F /  8 °C 23.4 °F /  -4.8 °C 30.06in /  1017.8hPa SSW 10.0mph /  16.1km/h 23.0mph /  37km/h 40% 0.00in /  0mm
18:54 46.3 °F /  7.9 °C 23.3 °F /  -4.8 °C 30.06in /  1017.8hPa SSW 7.0mph /  11.3km/h 21.0mph /  33.8km/h 40% 0.00in /  0mm
18:59 46.3 °F /  7.9 °C 23.9 °F /  -4.5 °C 30.06in /  1017.8hPa SSW 10.0mph /  16.1km/h 21.0mph /  33.8km/h 41% 0.00in /  0mm
19:04 46.1 °F /  7.8 °C 23.7 °F /  -4.6 °C 30.06in /  1017.8hPa SSW 7.0mph /  11.3km/h 21.0mph /  33.8km/h 41% 0.00in /  0mm
19:09 46.1 °F /  7.8 °C 23.7 °F /  -4.6 °C 30.06in /  1017.8hPa SSW 10.0mph /  16.1km/h 22.0mph /  35.4km/h 41% 0.00in /  0mm
19:14 46.0 °F /  7.8 °C 23.6 °F /  -4.7 °C 30.06in /  1017.8hPa SSW 9.0mph /  14.5km/h 22.0mph /  35.4km/h 41% 0.00in /  0mm
19:19 45.9 °F /  7.7 °C 23.5 °F /  -4.7 °C 30.05in /  1017.5hPa SSW 9.0mph /  14.5km/h 18.0mph /  29km/h 41% 0.00in /  0mm
19:24 45.8 °F /  7.7 °C 23.4 °F /  -4.8 °C 30.05in /  1017.5hPa SSW 10.0mph /  16.1km/h 20.0mph /  32.2km/h 41% 0.00in /  0mm
19:29 45.8 °F /  7.7 °C 23.4 °F /  -4.8 °C 30.05in /  1017.5hPa SSW 9.0mph /  14.5km/h 20.0mph /  32.2km/h 41% 0.00in /  0mm
19:34 45.6 °F /  7.6 °C 23.3 °F /  -4.8 °C 30.05in /  1017.5hPa SSW 9.0mph /  14.5km/h 20.0mph /  32.2km/h 41% 0.00in /  0mm
19:39 45.5 °F /  7.5 °C 23.2 °F /  -4.9 °C 30.04in /  1017.2hPa SSW 12.0mph /  19.3km/h 22.0mph /  35.4km/h 41% 0.00in /  0mm
19:44 45.4 °F /  7.4 °C 23.1 °F /  -4.9 °C 30.05in /  1017.5hPa SSW 9.0mph /  14.5km/h 22.0mph /  35.4km/h 41% 0.00in /  0mm
19:49 45.3 °F /  7.4 °C 23.6 °F /  -4.7 °C 30.05in /  1017.5hPa SSW 8.0mph /  12.9km/h 18.0mph /  29km/h 42% 0.00in /  0mm
19:54 45.2 °F /  7.3 °C 23.5 °F /  -4.7 °C 30.04in /  1017.2hPa SSW 8.0mph /  12.9km/h 18.0mph /  29km/h 42% 0.00in /  0mm
19:59 45.1 °F /  7.3 °C 23.4 °F /  -4.8 °C 30.04in /  1017.2hPa SSW 10.0mph /  16.1km/h 23.0mph /  37km/h 42% 0.00in /  0mm
20:04 45.0 °F /  7.2 °C 23.3 °F /  -4.8 °C 30.04in /  1017.2hPa SSW 7.0mph /  11.3km/h 23.0mph /  37km/h 42% 0.00in /  0mm
20:09 44.8 °F /  7.1 °C 23.1 °F /  -4.9 °C 30.04in /  1017.2hPa SSW 9.0mph /  14.5km/h 20.0mph /  32.2km/h 42% 0.00in /  0mm
20:14 44.7 °F /  7.1 °C 23.0 °F /  -5 °C 30.04in /  1017.2hPa SSW 10.0mph /  16.1km/h 20.0mph /  32.2km/h 42% 0.00in /  0mm
20:19 44.7 °F /  7.1 °C 23.0 °F /  -5 °C 30.03in /  1016.8hPa SSW 8.0mph /  12.9km/h 20.0mph /  32.2km/h 42% 0.00in /  0mm
20:24 44.7 °F /  7.1 °C 23.0 °F /  -5 °C 30.03in /  1016.8hPa SSW 9.0mph /  14.5km/h 17.0mph /  27.4km/h 42% 0.00in /  0mm
20:29 44.9 °F /  7.2 °C 22.6 °F /  -5.2 °C 30.03in /  1016.8hPa SSW 10.0mph /  16.1km/h 21.0mph /  33.8km/h 41% 0.00in /  0mm
20:34 44.8 °F /  7.1 °C 22.5 °F /  -5.3 °C 30.03in /  1016.8hPa SSW 7.0mph /  11.3km/h 22.0mph /  35.4km/h 41% 0.00in /  0mm
20:39 44.8 °F /  7.1 °C 22.5 °F /  -5.3 °C 30.03in /  1016.8hPa SSW 10.0mph /  16.1km/h 22.0mph /  35.4km/h 41% 0.00in /  0mm
20:44 44.9 °F /  7.2 °C 22.6 °F /  -5.2 °C 30.03in /  1016.8hPa SSW 10.0mph /  16.1km/h 20.0mph /  32.2km/h 41% 0.00in /  0mm
20:49 44.8 °F /  7.1 °C 22.5 °F /  -5.3 °C 30.03in /  1016.8hPa SSW 12.0mph /  19.3km/h 20.0mph /  32.2km/h 41% 0.00in /  0mm
20:54 44.8 °F /  7.1 °C 22.5 °F /  -5.3 °C 30.03in /  1016.8hPa SSW 11.0mph /  17.7km/h 20.0mph /  32.2km/h 41% 0.00in /  0mm
20:59 44.8 °F /  7.1 °C 22.5 °F /  -5.3 °C 30.03in /  1016.8hPa SSW 10.0mph /  16.1km/h 22.0mph /  35.4km/h 41% 0.00in /  0mm
21:09 44.7 °F /  7.1 °C 22.4 °F /  -5.3 °C 30.03in /  1016.8hPa SSW 9.0mph /  14.5km/h 27.0mph /  43.5km/h 41% 0.00in /  0mm
21:14 44.7 °F /  7.1 °C 22.4 °F /  -5.3 °C 30.03in /  1016.8hPa SSW 9.0mph /  14.5km/h 21.0mph /  33.8km/h 41% 0.00in /  0mm
21:19 44.7 °F /  7.1 °C 22.4 °F /  -5.3 °C 30.03in /  1016.8hPa SSW 11.0mph /  17.7km/h 21.0mph /  33.8km/h 41% 0.00in /  0mm
21:24 44.6 °F /  7 °C 22.9 °F /  -5.1 °C 30.03in /  1016.8hPa SSW 11.0mph /  17.7km/h 19.0mph /  30.6km/h 42% 0.00in /  0mm
21:29 44.7 °F /  7.1 °C 22.4 °F /  -5.3 °C 30.03in /  1016.8hPa SSW 14.0mph /  22.5km/h 23.0mph /  37km/h 41% 0.00in /  0mm
21:34 44.8 °F /  7.1 °C 22.5 °F /  -5.3 °C 30.03in /  1016.8hPa SSW 11.0mph /  17.7km/h 23.0mph /  37km/h 41% 0.00in /  0mm
21:39 44.8 °F /  7.1 °C 23.1 °F /  -4.9 °C 30.03in /  1016.8hPa SSW 9.0mph /  14.5km/h 21.0mph /  33.8km/h 42% 0.00in /  0mm
21:44 44.7 °F /  7.1 °C 23.0 °F /  -5 °C 30.03in /  1016.8hPa SSW 10.0mph /  16.1km/h 21.0mph /  33.8km/h 42% 0.00in /  0mm
21:49 44.5 °F /  6.9 °C 22.8 °F /  -5.1 °C 30.03in /  1016.8hPa SSW 7.0mph /  11.3km/h 19.0mph /  30.6km/h 42% 0.00in /  0mm
21:54 44.5 °F /  6.9 °C 22.8 °F /  -5.1 °C 30.03in /  1016.8hPa SSW 10.0mph /  16.1km/h 17.0mph /  27.4km/h 42% 0.00in /  0mm
21:59 44.6 °F /  7 °C 22.9 °F /  -5.1 °C 30.03in /  1016.8hPa SSW 9.0mph /  14.5km/h 18.0mph /  29km/h 42% 0.00in /  0mm
22:04 44.7 °F /  7.1 °C 23.0 °F /  -5 °C 30.03in /  1016.8hPa SSW 15.0mph /  24.1km/h 23.0mph /  37km/h 42% 0.00in /  0mm
22:09 44.9 °F /  7.2 °C 23.2 °F /  -4.9 °C 30.03in /  1016.8hPa SSW 9.0mph /  14.5km/h 23.0mph /  37km/h 42% 0.00in /  0mm
22:14 45.0 °F /  7.2 °C 23.3 °F /  -4.8 °C 30.03in /  1016.8hPa SSW 10.0mph /  16.1km/h 19.0mph /  30.6km/h 42% 0.00in /  0mm
22:19 45.0 °F /  7.2 °C 23.3 °F /  -4.8 °C 30.03in /  1016.8hPa SSW 8.0mph /  12.9km/h 19.0mph /  30.6km/h 42% 0.00in /  0mm
22:24 44.8 °F /  7.1 °C 23.7 °F /  -4.6 °C 30.03in /  1016.8hPa SSW 7.0mph /  11.3km/h 18.0mph /  29km/h 43% 0.00in /  0mm
22:29 44.7 °F /  7.1 °C 23.6 °F /  -4.7 °C 30.03in /  1016.8hPa SSW 9.0mph /  14.5km/h 18.0mph /  29km/h 43% 0.00in /  0mm
22:34 44.7 °F /  7.1 °C 23.6 °F /  -4.7 °C 30.03in /  1016.8hPa SSW 7.0mph /  11.3km/h 23.0mph /  37km/h 43% 0.00in /  0mm
22:39 44.7 °F /  7.1 °C 23.6 °F /  -4.7 °C 30.03in /  1016.8hPa SSW 9.0mph /  14.5km/h 23.0mph /  37km/h 43% 0.00in /  0mm
22:44 44.8 °F /  7.1 °C 23.7 °F /  -4.6 °C 30.03in /  1016.8hPa SSW 8.0mph /  12.9km/h 19.0mph /  30.6km/h 43% 0.00in /  0mm
22:49 44.8 °F /  7.1 °C 23.7 °F /  -4.6 °C 30.03in /  1016.8hPa SSW 10.0mph /  16.1km/h 19.0mph /  30.6km/h 43% 0.00in /  0mm
22:54 44.8 °F /  7.1 °C 23.7 °F /  -4.6 °C 30.03in /  1016.8hPa SSW 11.0mph /  17.7km/h 22.0mph /  35.4km/h 43% 0.00in /  0mm
22:59 44.8 °F /  7.1 °C 23.7 °F /  -4.6 °C 30.03in /  1016.8hPa SSW 8.0mph /  12.9km/h 22.0mph /  35.4km/h 43% 0.00in /  0mm
23:04 44.8 °F /  7.1 °C 23.7 °F /  -4.6 °C 30.02in /  1016.5hPa SSW 6.0mph /  9.7km/h 19.0mph /  30.6km/h 43% 0.00in /  0mm
23:09 44.7 °F /  7.1 °C 23.6 °F /  -4.7 °C 30.02in /  1016.5hPa SSW 8.0mph /  12.9km/h 19.0mph /  30.6km/h 43% 0.00in /  0mm
23:14 44.8 °F /  7.1 °C 23.7 °F /  -4.6 °C 30.01in /  1016.1hPa SSW 10.0mph /  16.1km/h 22.0mph /  35.4km/h 43% 0.00in /  0mm
23:19 44.9 °F /  7.2 °C 23.8 °F /  -4.6 °C 30.02in /  1016.5hPa SSW 10.0mph /  16.1km/h 22.0mph /  35.4km/h 43% 0.00in /  0mm
23:24 44.8 °F /  7.1 °C 23.7 °F /  -4.6 °C 30.01in /  1016.1hPa SSW 9.0mph /  14.5km/h 20.0mph /  32.2km/h 43% 0.00in /  0mm
23:29 44.7 °F /  7.1 °C 24.1 °F /  -4.4 °C 30.01in /  1016.1hPa SSW 9.0mph /  14.5km/h 19.0mph /  30.6km/h 44% 0.00in /  0mm
23:34 44.7 °F /  7.1 °C 23.6 °F /  -4.7 °C 30.00in /  1015.8hPa SSW 9.0mph /  14.5km/h 19.0mph /  30.6km/h 43% 0.00in /  0mm
23:39 44.7 °F /  7.1 °C 23.6 °F /  -4.7 °C 30.00in /  1015.8hPa SSW 11.0mph /  17.7km/h 19.0mph /  30.6km/h 43% 0.00in /  0mm
23:44 44.7 °F /  7.1 °C 24.1 °F /  -4.4 °C 30.00in /  1015.8hPa SSW 7.0mph /  11.3km/h 19.0mph /  30.6km/h 44% 0.00in /  0mm
23:54 44.5 °F /  6.9 °C 24.5 °F /  -4.2 °C 30.00in /  1015.8hPa SSW 10.0mph /  16.1km/h 18.0mph /  29km/h 45% 0.00in /  0mm
23:59 44.2 °F /  6.8 °C 24.7 °F /  -4.1 °C 30.00in /  1015.8hPa SSW 7.0mph /  11.3km/h 18.0mph /  29km/h 46% 0.00in /  0mm
Westford Weather
Compliments of Weather Underground

 
 
Current Radar Loop:

Copyright © WestfordWeather.net 2007-2014. All rights reserved.